sensor_id;sensor_type;location;lat;lon;timestamp;temperature;humidity
61351;DHT22;47119;49.130;9.218;2023-08-08T10:46:24;18.89;61.99
61351;DHT22;47119;49.130;9.218;2023-08-08T10:52:53;18.85;61.65
61351;DHT22;47119;49.130;9.218;2023-08-08T10:55:27;18.87;61.25
61351;DHT22;47119;49.130;9.218;2023-08-08T10:58:02;18.85;61.20
61351;DHT22;47119;49.130;9.218;2023-08-08T11:00:34;18.86;61.00
61351;DHT22;47119;49.130;9.218;2023-08-08T12:15:21;19.02;59.37
61351;DHT22;47119;49.130;9.218;2023-08-08T12:22:35;18.99;58.99
61351;DHT22;47119;49.130;9.218;2023-08-08T12:25:23;19.00;59.65
61351;DHT22;47119;49.130;9.218;2023-08-08T12:29:25;19.04;57.99
61351;DHT22;47119;49.130;9.218;2023-08-08T12:46:00;19.07;57.13
61351;DHT22;47119;49.130;9.218;2023-08-08T13:01:53;19.03;54.58
61351;DHT22;47119;49.130;9.218;2023-08-08T13:04:59;19.00;54.76
61351;DHT22;47119;49.130;9.218;2023-08-08T13:07:29;19.03;54.29
61351;DHT22;47119;49.130;9.218;2023-08-08T13:09:58;18.99;54.42
61351;DHT22;47119;49.130;9.218;2023-08-08T13:12:55;19.02;54.64
61351;DHT22;47119;49.130;9.218;2023-08-08T13:15:37;19.02;54.47
61351;DHT22;47119;49.130;9.218;2023-08-08T13:18:22;19.08;53.63
61351;DHT22;47119;49.130;9.218;2023-08-08T13:21:39;19.17;54.87
61351;DHT22;47119;49.130;9.218;2023-08-08T13:24:07;19.27;54.52
61351;DHT22;47119;49.130;9.218;2023-08-08T13:26:35;19.04;59.43
61351;DHT22;47119;49.130;9.218;2023-08-08T13:29:03;18.95;60.11
61351;DHT22;47119;49.130;9.218;2023-08-08T13:31:30;18.87;61.96
61351;DHT22;47119;49.130;9.218;2023-08-08T13:34:01;18.80;65.77
61351;DHT22;47119;49.130;9.218;2023-08-08T13:36:28;18.80;60.03
61351;DHT22;47119;49.130;9.218;2023-08-08T13:39:06;18.75;64.91
61351;DHT22;47119;49.130;9.218;2023-08-08T13:41:35;18.69;61.19
61351;DHT22;47119;49.130;9.218;2023-08-08T13:44:02;18.73;64.26
61351;DHT22;47119;49.130;9.218;2023-08-08T13:46:30;18.72;59.67
61351;DHT22;47119;49.130;9.218;2023-08-08T13:49:01;18.79;60.67
61351;DHT22;47119;49.130;9.218;2023-08-08T13:51:33;18.77;58.55
61351;DHT22;47119;49.130;9.218;2023-08-08T13:54:05;18.68;62.60
61351;DHT22;47119;49.130;9.218;2023-08-08T13:56:32;18.66;64.89
61351;DHT22;47119;49.130;9.218;2023-08-08T13:58:59;18.69;61.38
61351;DHT22;47119;49.130;9.218;2023-08-08T14:01:32;18.70;61.84
61351;DHT22;47119;49.130;9.218;2023-08-08T14:03:59;18.73;65.38
61351;DHT22;47119;49.130;9.218;2023-08-08T14:06:34;18.72;62.33
61351;DHT22;47119;49.130;9.218;2023-08-08T14:09:01;18.76;63.45
61351;DHT22;47119;49.130;9.218;2023-08-08T14:11:35;18.77;64.42
61351;DHT22;47119;49.130;9.218;2023-08-08T14:14:04;18.77;61.59
61351;DHT22;47119;49.130;9.218;2023-08-08T14:16:32;18.65;67.13
61351;DHT22;47119;49.130;9.218;2023-08-08T14:19:04;18.72;63.27
61351;DHT22;47119;49.130;9.218;2023-08-08T14:21:33;18.79;66.09
61351;DHT22;47119;49.130;9.218;2023-08-08T14:24:02;18.79;66.83
61351;DHT22;47119;49.130;9.218;2023-08-08T14:26:30;18.72;63.94
61351;DHT22;47119;49.130;9.218;2023-08-08T14:28:57;18.87;61.48
61351;DHT22;47119;49.130;9.218;2023-08-08T14:31:25;18.77;66.98
61351;DHT22;47119;49.130;9.218;2023-08-08T14:33:55;18.83;65.22
61351;DHT22;47119;49.130;9.218;2023-08-08T14:36:29;18.83;62.53
61351;DHT22;47119;49.130;9.218;2023-08-08T14:38:58;18.80;65.26
61351;DHT22;47119;49.130;9.218;2023-08-08T14:41:35;18.85;63.35
61351;DHT22;47119;49.130;9.218;2023-08-08T14:44:03;18.75;67.23
61351;DHT22;47119;49.130;9.218;2023-08-08T14:46:33;18.92;63.23
61351;DHT22;47119;49.130;9.218;2023-08-08T14:49:00;18.93;60.66
61351;DHT22;47119;49.130;9.218;2023-08-08T14:51:28;18.95;60.09
61351;DHT22;47119;49.130;9.218;2023-08-08T14:53:55;18.85;63.90
61351;DHT22;47119;49.130;9.218;2023-08-08T14:56:25;18.86;62.32
61351;DHT22;47119;49.130;9.218;2023-08-08T14:58:52;18.82;66.54
61351;DHT22;47119;49.130;9.218;2023-08-08T15:01:22;18.82;61.04
61351;DHT22;47119;49.130;9.218;2023-08-08T15:03:50;18.82;61.17
61351;DHT22;47119;49.130;9.218;2023-08-08T15:06:17;18.80;65.32
61351;DHT22;47119;49.130;9.218;2023-08-08T15:08:56;18.90;60.04
61351;DHT22;47119;49.130;9.218;2023-08-08T15:11:25;18.95;63.04
61351;DHT22;47119;49.130;9.218;2023-08-08T15:14:05;18.92;61.05
61351;DHT22;47119;49.130;9.218;2023-08-08T15:16:41;18.76;66.50
61351;DHT22;47119;49.130;9.218;2023-08-08T15:19:11;18.87;64.14
61351;DHT22;47119;49.130;9.218;2023-08-08T15:21:41;18.92;62.36
61351;DHT22;47119;49.130;9.218;2023-08-08T15:24:09;18.93;64.93
61351;DHT22;47119;49.130;9.218;2023-08-08T15:26:43;18.87;64.76
61351;DHT22;47119;49.130;9.218;2023-08-08T15:29:44;18.97;59.59
61351;DHT22;47119;49.130;9.218;2023-08-08T15:32:15;18.93;60.42
61351;DHT22;47119;49.130;9.218;2023-08-08T15:34:42;18.95;60.83
61351;DHT22;47119;49.130;9.218;2023-08-08T15:37:09;18.93;61.68
61351;DHT22;47119;49.130;9.218;2023-08-08T15:39:41;18.93;58.67
61351;DHT22;47119;49.130;9.218;2023-08-08T15:42:14;18.93;60.13
61351;DHT22;47119;49.130;9.218;2023-08-08T15:44:47;18.95;62.39
61351;DHT22;47119;49.130;9.218;2023-08-08T15:47:17;18.96;59.27
61351;DHT22;47119;49.130;9.218;2023-08-08T15:49:47;18.93;64.90
61351;DHT22;47119;49.130;9.218;2023-08-08T15:52:14;18.97;61.64
61351;DHT22;47119;49.130;9.218;2023-08-08T15:54:49;18.99;59.19
61351;DHT22;47119;49.130;9.218;2023-08-08T15:57:24;18.97;60.09
61351;DHT22;47119;49.130;9.218;2023-08-08T15:59:56;19.00;59.68
61351;DHT22;47119;49.130;9.218;2023-08-08T16:02:24;19.00;60.59
61351;DHT22;47119;49.130;9.218;2023-08-08T16:04:53;18.99;61.78
61351;DHT22;47119;49.130;9.218;2023-08-08T16:07:22;19.00;60.01
61351;DHT22;47119;49.130;9.218;2023-08-08T16:09:55;19.06;63.28
61351;DHT22;47119;49.130;9.218;2023-08-08T16:12:22;19.03;60.34
61351;DHT22;47119;49.130;9.218;2023-08-08T16:14:51;19.03;62.08
61351;DHT22;47119;49.130;9.218;2023-08-08T16:17:21;19.08;60.27
61351;DHT22;47119;49.130;9.218;2023-08-08T16:19:48;19.04;60.15
61351;DHT22;47119;49.130;9.218;2023-08-08T16:22:21;19.03;61.04
61351;DHT22;47119;49.130;9.218;2023-08-08T16:24:53;19.06;60.46
61351;DHT22;47119;49.130;9.218;2023-08-08T16:27:28;19.04;62.40
61351;DHT22;47119;49.130;9.218;2023-08-08T16:29:59;19.03;61.19
61351;DHT22;47119;49.130;9.218;2023-08-08T16:32:29;19.11;61.34
61351;DHT22;47119;49.130;9.218;2023-08-08T16:35:02;19.08;62.01
61351;DHT22;47119;49.130;9.218;2023-08-08T16:37:32;19.14;60.71
61351;DHT22;47119;49.130;9.218;2023-08-08T16:40:16;19.08;61.06
61351;DHT22;47119;49.130;9.218;2023-08-08T16:42:45;19.14;60.47
61351;DHT22;47119;49.130;9.218;2023-08-08T16:45:13;19.18;61.46
61351;DHT22;47119;49.130;9.218;2023-08-08T16:47:42;19.17;60.99
61351;DHT22;47119;49.130;9.218;2023-08-08T16:50:09;19.17;61.23
61351;DHT22;47119;49.130;9.218;2023-08-08T16:52:36;19.17;61.95
61351;DHT22;47119;49.130;9.218;2023-08-08T16:55:08;19.14;61.05
61351;DHT22;47119;49.130;9.218;2023-08-08T16:57:36;19.16;62.55
61351;DHT22;47119;49.130;9.218;2023-08-08T17:00:07;19.18;61.97
61351;DHT22;47119;49.130;9.218;2023-08-08T17:02:36;19.17;61.80
61351;DHT22;47119;49.130;9.218;2023-08-08T17:05:07;19.14;62.14
61351;DHT22;47119;49.130;9.218;2023-08-08T17:07:36;19.17;62.35
61351;DHT22;47119;49.130;9.218;2023-08-08T17:10:04;19.17;63.09
61351;DHT22;47119;49.130;9.218;2023-08-08T17:12:33;19.20;61.73
61351;DHT22;47119;49.130;9.218;2023-08-08T17:15:00;19.20;61.77
61351;DHT22;47119;49.130;9.218;2023-08-08T17:17:30;19.20;62.49
61351;DHT22;47119;49.130;9.218;2023-08-08T17:19:59;19.18;62.43
61351;DHT22;47119;49.130;9.218;2023-08-08T17:22:29;19.21;62.34
61351;DHT22;47119;49.130;9.218;2023-08-08T17:24:56;19.21;62.14
61351;DHT22;47119;49.130;9.218;2023-08-08T17:27:26;19.18;62.63
61351;DHT22;47119;49.130;9.218;2023-08-08T17:29:54;19.17;61.95
61351;DHT22;47119;49.130;9.218;2023-08-08T17:32:21;19.23;62.38
61351;DHT22;47119;49.130;9.218;2023-08-08T17:35:07;19.23;62.47
61351;DHT22;47119;49.130;9.218;2023-08-08T17:38:51;19.24;62.84
61351;DHT22;47119;49.130;9.218;2023-08-08T17:44:23;19.23;62.83
61351;DHT22;47119;49.130;9.218;2023-08-08T17:50:33;19.21;63.23
61351;DHT22;47119;49.130;9.218;2023-08-08T17:53:02;19.21;62.94
61351;DHT22;47119;49.130;9.218;2023-08-08T17:56:04;19.24;63.05
61351;DHT22;47119;49.130;9.218;2023-08-08T17:58:36;19.21;63.41
61351;DHT22;47119;49.130;9.218;2023-08-08T18:01:37;19.21;63.32
61351;DHT22;47119;49.130;9.218;2023-08-08T18:04:54;19.20;63.44
61351;DHT22;47119;49.130;9.218;2023-08-08T18:07:26;19.21;63.73
61351;DHT22;47119;49.130;9.218;2023-08-08T18:09:55;19.20;64.03
61351;DHT22;47119;49.130;9.218;2023-08-08T18:12:25;19.23;64.64
61351;DHT22;47119;49.130;9.218;2023-08-08T18:21:13;19.23;64.75
61351;DHT22;47119;49.130;9.218;2023-08-08T18:23:41;19.26;64.59
61351;DHT22;47119;49.130;9.218;2023-08-08T18:26:08;19.26;64.82
61351;DHT22;47119;49.130;9.218;2023-08-08T18:28:41;19.23;65.37
61351;DHT22;47119;49.130;9.218;2023-08-08T18:31:10;19.21;65.23
61351;DHT22;47119;49.130;9.218;2023-08-08T18:33:41;19.23;65.21
61351;DHT22;47119;49.130;9.218;2023-08-08T18:36:11;19.21;65.35
61351;DHT22;47119;49.130;9.218;2023-08-08T18:38:42;19.23;65.91
61351;DHT22;47119;49.130;9.218;2023-08-08T18:41:09;19.23;66.49
61351;DHT22;47119;49.130;9.218;2023-08-08T18:43:36;19.23;66.38
61351;DHT22;47119;49.130;9.218;2023-08-08T18:46:04;19.23;66.44
61351;DHT22;47119;49.130;9.218;2023-08-08T18:48:31;19.21;66.54
61351;DHT22;47119;49.130;9.218;2023-08-08T18:50:59;19.24;66.18
61351;DHT22;47119;49.130;9.218;2023-08-08T18:53:26;19.23;66.11
61351;DHT22;47119;49.130;9.218;2023-08-08T18:55:59;19.24;66.41
61351;DHT22;47119;49.130;9.218;2023-08-08T18:58:26;19.23;66.90
61351;DHT22;47119;49.130;9.218;2023-08-08T19:00:54;19.26;67.21
61351;DHT22;47119;49.130;9.218;2023-08-08T19:03:24;19.24;66.99
61351;DHT22;47119;49.130;9.218;2023-08-08T19:05:59;19.26;66.97
61351;DHT22;47119;49.130;9.218;2023-08-08T19:08:31;19.26;67.18
61351;DHT22;47119;49.130;9.218;2023-08-08T19:11:38;19.23;66.75
61351;DHT22;47119;49.130;9.218;2023-08-08T19:14:16;19.23;67.74
61351;DHT22;47119;49.130;9.218;2023-08-08T19:16:52;19.21;67.31
61351;DHT22;47119;49.130;9.218;2023-08-08T19:19:20;19.20;67.25
61351;DHT22;47119;49.130;9.218;2023-08-08T19:21:47;19.20;67.75
61351;DHT22;47119;49.130;9.218;2023-08-08T19:24:18;19.10;68.78
61351;DHT22;47119;49.130;9.218;2023-08-08T19:26:47;19.13;69.47
61351;DHT22;47119;49.130;9.218;2023-08-08T19:29:18;19.16;68.26
61351;DHT22;47119;49.130;9.218;2023-08-08T19:31:48;19.14;69.57
61351;DHT22;47119;49.130;9.218;2023-08-08T19:34:16;19.11;70.62
61351;DHT22;47119;49.130;9.218;2023-08-08T19:36:48;19.13;69.54
61351;DHT22;47119;49.130;9.218;2023-08-08T19:39:20;19.11;70.75
61351;DHT22;47119;49.130;9.218;2023-08-08T19:41:50;19.08;71.36
61351;DHT22;47119;49.130;9.218;2023-08-08T19:44:18;19.07;71.62
61351;DHT22;47119;49.130;9.218;2023-08-08T19:46:45;19.04;72.08
61351;DHT22;47119;49.130;9.218;2023-08-08T19:49:12;19.06;72.14
61351;DHT22;47119;49.130;9.218;2023-08-08T19:51:40;19.04;71.89
61351;DHT22;47119;49.130;9.218;2023-08-08T19:54:07;19.04;72.53
61351;DHT22;47119;49.130;9.218;2023-08-08T19:56:36;19.00;72.27
61351;DHT22;47119;49.130;9.218;2023-08-08T19:59:06;19.02;72.77
61351;DHT22;47119;49.130;9.218;2023-08-08T20:01:35;19.00;72.89
61351;DHT22;47119;49.130;9.218;2023-08-08T20:04:13;19.00;72.76
61351;DHT22;47119;49.130;9.218;2023-08-08T20:06:49;19.00;73.11
61351;DHT22;47119;49.130;9.218;2023-08-08T20:09:28;18.99;72.88
61351;DHT22;47119;49.130;9.218;2023-08-08T20:12:04;18.99;73.06
61351;DHT22;47119;49.130;9.218;2023-08-08T20:14:39;18.99;73.12
61351;DHT22;47119;49.130;9.218;2023-08-08T20:17:11;19.00;73.00
61351;DHT22;47119;49.130;9.218;2023-08-08T20:19:43;19.00;73.45
61351;DHT22;47119;49.130;9.218;2023-08-08T20:22:18;18.97;73.45
61351;DHT22;47119;49.130;9.218;2023-08-08T20:25:32;18.99;73.29
61351;DHT22;47119;49.130;9.218;2023-08-08T20:32:41;18.96;73.74
61351;DHT22;47119;49.130;9.218;2023-08-08T20:36:15;18.95;73.47
61351;DHT22;47119;49.130;9.218;2023-08-08T20:38:58;18.93;73.84
61351;DHT22;47119;49.130;9.218;2023-08-08T20:41:26;18.95;73.54
61351;DHT22;47119;49.130;9.218;2023-08-08T20:43:56;18.95;73.73
61351;DHT22;47119;49.130;9.218;2023-08-08T20:46:25;18.93;73.51
61351;DHT22;47119;49.130;9.218;2023-08-08T20:48:56;18.93;73.87
61351;DHT22;47119;49.130;9.218;2023-08-08T20:51:23;18.96;73.85
61351;DHT22;47119;49.130;9.218;2023-08-08T20:53:50;18.99;73.26
61351;DHT22;47119;49.130;9.218;2023-08-08T20:56:20;18.99;73.55
61351;DHT22;47119;49.130;9.218;2023-08-08T20:58:49;18.99;73.42
61351;DHT22;47119;49.130;9.218;2023-08-08T21:01:17;19.00;73.42
61351;DHT22;47119;49.130;9.218;2023-08-08T21:03:44;18.96;73.57
61351;DHT22;47119;49.130;9.218;2023-08-08T21:06:13;18.95;73.32
61351;DHT22;47119;49.130;9.218;2023-08-08T21:08:40;18.97;73.24
61351;DHT22;47119;49.130;9.218;2023-08-08T21:11:07;18.97;73.33
61351;DHT22;47119;49.130;9.218;2023-08-08T21:13:34;18.93;73.78
61351;DHT22;47119;49.130;9.218;2023-08-08T21:16:01;18.93;73.99
61351;DHT22;47119;49.130;9.218;2023-08-08T21:18:28;18.93;73.36
61351;DHT22;47119;49.130;9.218;2023-08-08T21:20:57;18.95;73.03
61351;DHT22;47119;49.130;9.218;2023-08-08T21:23:25;18.93;73.09
61351;DHT22;47119;49.130;9.218;2023-08-08T21:25:52;18.96;72.95
61351;DHT22;47119;49.130;9.218;2023-08-08T21:28:19;18.95;73.17
61351;DHT22;47119;49.130;9.218;2023-08-08T21:30:46;18.92;72.99
61351;DHT22;47119;49.130;9.218;2023-08-08T21:33:24;18.87;72.47
61351;DHT22;47119;49.130;9.218;2023-08-08T21:36:16;18.92;72.44
61351;DHT22;47119;49.130;9.218;2023-08-08T21:38:44;18.89;72.54
61351;DHT22;47119;49.130;9.218;2023-08-08T21:41:11;18.87;72.40
61351;DHT22;47119;49.130;9.218;2023-08-08T21:43:38;18.89;72.30
61351;DHT22;47119;49.130;9.218;2023-08-08T21:46:06;18.89;72.19
61351;DHT22;47119;49.130;9.218;2023-08-08T21:48:34;18.92;72.13
61351;DHT22;47119;49.130;9.218;2023-08-08T21:51:01;18.93;71.94
61351;DHT22;47119;49.130;9.218;2023-08-08T21:53:29;18.90;72.12
61351;DHT22;47119;49.130;9.218;2023-08-08T21:56:00;18.89;72.02
61351;DHT22;47119;49.130;9.218;2023-08-08T21:58:27;18.85;71.93
61351;DHT22;47119;49.130;9.218;2023-08-08T22:00:55;18.86;71.77
61351;DHT22;47119;49.130;9.218;2023-08-08T22:03:24;18.86;71.75
61351;DHT22;47119;49.130;9.218;2023-08-08T22:05:54;18.86;71.85
61351;DHT22;47119;49.130;9.218;2023-08-08T22:08:21;18.82;72.19
61351;DHT22;47119;49.130;9.218;2023-08-08T22:10:48;18.87;71.72
61351;DHT22;47119;49.130;9.218;2023-08-08T22:13:16;18.87;71.99
61351;DHT22;47119;49.130;9.218;2023-08-08T22:15:46;18.85;72.19
61351;DHT22;47119;49.130;9.218;2023-08-08T22:18:14;18.86;71.93
61351;DHT22;47119;49.130;9.218;2023-08-08T22:20:44;18.90;71.60
61351;DHT22;47119;49.130;9.218;2023-08-08T22:23:14;18.86;71.92
61351;DHT22;47119;49.130;9.218;2023-08-08T22:25:44;18.90;71.64
61351;DHT22;47119;49.130;9.218;2023-08-08T22:28:11;18.92;71.65
61351;DHT22;47119;49.130;9.218;2023-08-08T22:30:41;18.90;72.03
61351;DHT22;47119;49.130;9.218;2023-08-08T22:33:09;18.87;72.15
61351;DHT22;47119;49.130;9.218;2023-08-08T22:35:40;18.92;71.56
61351;DHT22;47119;49.130;9.218;2023-08-08T22:38:10;18.92;71.25
61351;DHT22;47119;49.130;9.218;2023-08-08T22:40:37;18.90;71.77
61351;DHT22;47119;49.130;9.218;2023-08-08T22:43:07;18.92;71.61
61351;DHT22;47119;49.130;9.218;2023-08-08T22:45:34;18.90;71.19
61351;DHT22;47119;49.130;9.218;2023-08-08T22:48:04;18.87;71.55
61351;DHT22;47119;49.130;9.218;2023-08-08T22:50:35;18.89;71.33
61351;DHT22;47119;49.130;9.218;2023-08-08T22:53:06;18.89;71.33
61351;DHT22;47119;49.130;9.218;2023-08-08T22:55:33;18.86;71.20
61351;DHT22;47119;49.130;9.218;2023-08-08T22:58:03;18.87;71.55
61351;DHT22;47119;49.130;9.218;2023-08-08T23:00:34;18.87;71.17
61351;DHT22;47119;49.130;9.218;2023-08-08T23:03:08;18.87;70.98
61351;DHT22;47119;49.130;9.218;2023-08-08T23:05:38;18.89;70.95
61351;DHT22;47119;49.130;9.218;2023-08-08T23:08:06;18.86;71.37
61351;DHT22;47119;49.130;9.218;2023-08-08T23:10:35;18.86;71.42
61351;DHT22;47119;49.130;9.218;2023-08-08T23:13:05;18.87;71.48
61351;DHT22;47119;49.130;9.218;2023-08-08T23:15:34;18.87;71.49
61351;DHT22;47119;49.130;9.218;2023-08-08T23:18:01;18.85;71.67
61351;DHT22;47119;49.130;9.218;2023-08-08T23:20:33;18.82;71.92
61351;DHT22;47119;49.130;9.218;2023-08-08T23:23:00;18.83;72.05
61351;DHT22;47119;49.130;9.218;2023-08-08T23:25:29;18.82;71.62
61351;DHT22;47119;49.130;9.218;2023-08-08T23:27:59;18.83;71.67
61351;DHT22;47119;49.130;9.218;2023-08-08T23:30:28;18.83;71.83
61351;DHT22;47119;49.130;9.218;2023-08-08T23:32:58;18.82;71.97
61351;DHT22;47119;49.130;9.218;2023-08-08T23:35:29;18.80;71.86
61351;DHT22;47119;49.130;9.218;2023-08-08T23:38:00;18.82;72.09
61351;DHT22;47119;49.130;9.218;2023-08-08T23:40:27;18.83;71.91
61351;DHT22;47119;49.130;9.218;2023-08-08T23:42:55;18.85;72.24
61351;DHT22;47119;49.130;9.218;2023-08-08T23:45:24;18.83;72.53
61351;DHT22;47119;49.130;9.218;2023-08-08T23:47:54;18.79;72.81
61351;DHT22;47119;49.130;9.218;2023-08-08T23:50:23;18.77;73.55
61351;DHT22;47119;49.130;9.218;2023-08-08T23:52:50;18.79;74.54
61351;DHT22;47119;49.130;9.218;2023-08-08T23:55:23;18.80;74.69
61351;DHT22;47119;49.130;9.218;2023-08-08T23:57:52;18.80;75.55
